createdAt,value
2019-05-29T00:00:22.987Z,87.29
2019-05-29T00:01:24.672Z,87.21
2019-05-29T00:02:25.345Z,86.77
2019-05-29T00:03:24.491Z,86.41
2019-05-29T00:04:26.404Z,86.53
2019-05-29T00:05:27.008Z,87.35
2019-05-29T00:06:27.769Z,87.67
2019-05-29T00:07:28.486Z,87.64
2019-05-29T00:08:28.153Z,87.94
2019-05-29T00:09:29.218Z,86.77
2019-05-29T00:10:29.807Z,87.42
2019-05-29T00:11:30.644Z,87.27
2019-05-29T00:12:30.017Z,87.70
2019-05-29T00:13:30.779Z,87.39
2019-05-29T00:14:31.800Z,87.75
2019-05-29T00:15:32.225Z,88.23
2019-05-29T00:16:32.570Z,87.73
2019-05-29T00:17:33.106Z,87.50
2019-05-29T00:18:33.807Z,87.55
2019-05-29T00:19:34.152Z,87.50
2019-05-29T00:20:34.617Z,87.26
2019-05-29T00:21:35.394Z,87.39
2019-05-29T00:22:35.882Z,87.33
2019-05-29T00:23:36.119Z,87.59
2019-05-29T00:24:36.614Z,87.10
2019-05-29T00:25:36.523Z,86.96
2019-05-29T00:26:36.678Z,87.09
2019-05-29T00:26:48.934Z,87.56
2019-05-29T00:27:48.158Z,87.56
2019-05-29T00:28:49.159Z,87.21
2019-05-29T00:29:49.535Z,87.29
2019-05-29T00:30:49.920Z,87.05
2019-05-29T00:31:50.978Z,87.11
2019-05-29T00:32:51.343Z,87.38
2019-05-29T00:33:53.163Z,87.03
2019-05-29T00:34:52.355Z,86.60
2019-05-29T00:35:53.030Z,86.68
2019-05-29T00:36:53.691Z,86.62
2019-05-29T00:37:53.953Z,86.58
2019-05-29T00:38:54.369Z,86.58
2019-05-29T00:39:54.811Z,86.42
2019-05-29T00:40:55.278Z,86.12
2019-05-29T00:41:55.766Z,86.13
2019-05-29T00:42:56.429Z,86.59
2019-05-29T00:43:57.205Z,87.00
2019-05-29T00:44:57.518Z,86.83
2019-05-29T00:45:57.848Z,86.73
2019-05-29T00:46:58.314Z,86.92
2019-05-29T00:47:59.168Z,87.31
2019-05-29T00:48:59.735Z,86.73
2019-05-29T00:50:00.058Z,87.09
2019-05-29T00:51:01.463Z,87.04
2019-05-29T00:52:02.219Z,87.40
2019-05-29T00:53:01.239Z,87.33
2019-05-29T00:54:01.356Z,87.11
2019-05-29T00:55:01.846Z,87.91
2019-05-29T00:56:03.146Z,87.46
2019-05-29T00:57:02.780Z,87.48
2019-05-29T00:58:03.134Z,87.98
2019-05-29T00:59:03.696Z,87.81
2019-05-29T01:00:04.706Z,87.68
2019-05-29T01:01:04.862Z,88.26
2019-05-29T01:02:05.487Z,87.83
2019-05-29T01:03:06.178Z,88.29
2019-05-29T01:04:06.650Z,88.22
2019-05-29T01:05:07.067Z,88.69
2019-05-29T01:06:07.717Z,88.71
2019-05-29T01:07:08.106Z,88.62
2019-05-29T01:08:08.550Z,88.83
2019-05-29T01:09:08.732Z,88.97
2019-05-29T01:10:10.606Z,89.35
2019-05-29T01:11:10.629Z,89.48
2019-05-29T01:12:10.842Z,90.19
2019-05-29T01:13:11.099Z,89.62
2019-05-29T01:14:11.266Z,89.68
2019-05-29T01:15:13.336Z,89.76
2019-05-29T01:16:12.055Z,89.86
2019-05-29T01:17:13.771Z,90.31
2019-05-29T01:18:13.782Z,90.58
2019-05-29T01:19:13.904Z,90.59
2019-05-29T01:20:14.086Z,90.37
2019-05-29T01:21:14.581Z,90.73
2019-05-29T01:22:16.171Z,90.15
2019-05-29T01:23:16.258Z,90.18
2019-05-29T01:24:16.293Z,90.04
2019-05-29T01:25:16.566Z,89.92
2019-05-29T01:26:16.838Z,89.58
2019-05-29T01:27:18.801Z,89.42
2019-05-29T01:28:17.290Z,89.72
2019-05-29T01:29:19.455Z,90.20
2019-05-29T01:30:19.355Z,90.09
2019-05-29T01:31:19.374Z,89.85
2019-05-29T01:32:19.530Z,90.08
2019-05-29T01:33:20.478Z,90.29
2019-05-29T01:34:19.859Z,89.43
2019-05-29T01:35:20.159Z,89.14
2019-05-29T01:36:20.363Z,89.14
2019-05-29T01:37:22.290Z,88.89
2019-05-29T01:38:21.578Z,89.12
2019-05-29T01:39:21.595Z,89.45
2019-05-29T01:40:27.448Z,89.88
2019-05-29T01:41:23.543Z,89.68
2019-05-29T01:42:23.495Z,89.65
2019-05-29T01:43:23.593Z,89.61
2019-05-29T01:44:23.914Z,89.51
2019-05-29T01:45:23.921Z,89.88
2019-05-29T01:46:25.424Z,89.73
2019-05-29T01:47:25.845Z,88.74
2019-05-29T01:48:26.253Z,88.59
2019-05-29T01:49:28.049Z,88.96
2019-05-29T01:50:26.213Z,88.91
2019-05-29T01:51:28.042Z,88.70
2019-05-29T01:52:28.070Z,88.66
2019-05-29T01:53:27.961Z,88.96
2019-05-29T01:54:28.054Z,88.74
2019-05-29T01:55:28.288Z,88.85
2019-05-29T01:56:29.672Z,88.81
2019-05-29T01:57:30.378Z,88.52
2019-05-29T01:58:30.690Z,88.36
2019-05-29T01:59:31.039Z,87.84
2019-05-29T02:00:31.480Z,87.87
2019-05-29T02:01:31.977Z,87.79
2019-05-29T02:02:32.313Z,88.37
2019-05-29T02:03:32.797Z,88.71
2019-05-29T02:04:33.262Z,88.24
2019-05-29T02:05:33.764Z,88.67
2019-05-29T02:06:34.227Z,88.44
2019-05-29T02:06:42.747Z,88.58
2019-05-29T02:07:44.159Z,88.61
2019-05-29T02:08:44.519Z,88.73
2019-05-29T02:09:44.912Z,89.06
2019-05-29T02:10:45.387Z,88.88
2019-05-29T02:11:45.795Z,88.42
2019-05-29T02:12:46.391Z,88.08
2019-05-29T02:13:46.736Z,88.51
2019-05-29T02:14:47.179Z,87.93
2019-05-29T02:15:47.668Z,88.12
2019-05-29T02:16:48.070Z,87.79
2019-05-29T02:17:48.521Z,88.09
2019-05-29T02:18:48.787Z,88.25
2019-05-29T02:19:49.177Z,87.69
2019-05-29T02:20:49.537Z,88.50
2019-05-29T02:21:49.930Z,88.95
2019-05-29T02:22:50.276Z,88.33
2019-05-29T02:23:50.638Z,88.47
2019-05-29T02:24:51.004Z,88.12
2019-05-29T02:25:51.526Z,88.42
2019-05-29T02:26:51.866Z,88.61
2019-05-29T02:27:52.216Z,88.18
2019-05-29T02:28:52.512Z,88.52
2019-05-29T02:29:52.987Z,88.01
2019-05-29T02:30:53.415Z,88.32
2019-05-29T02:31:53.765Z,88.83
2019-05-29T02:32:54.159Z,88.73
2019-05-29T02:33:54.523Z,89.03
2019-05-29T02:34:54.903Z,89.21
2019-05-29T02:35:55.285Z,89.58
2019-05-29T02:36:55.566Z,89.13
2019-05-29T02:37:56.114Z,89.55
2019-05-29T02:38:56.451Z,89.31
2019-05-29T02:39:57.254Z,88.24
2019-05-29T02:40:57.683Z,88.57
2019-05-29T02:41:58.214Z,88.88
2019-05-29T02:42:58.591Z,89.44
2019-05-29T02:43:59.019Z,88.37
2019-05-29T02:44:59.502Z,88.79
2019-05-29T02:45:59.854Z,89.39
2019-05-29T02:47:00.453Z,89.54
2019-05-29T02:48:00.814Z,89.06
2019-05-29T02:49:01.257Z,88.72
2019-05-29T02:50:01.646Z,89.19
2019-05-29T02:50:10.199Z,88.92
2019-05-29T02:51:12.251Z,88.89
2019-05-29T02:52:10.934Z,88.25
2019-05-29T02:53:12.390Z,88.10
2019-05-29T02:54:12.843Z,87.70
2019-05-29T02:55:13.255Z,88.13
2019-05-29T02:56:13.641Z,87.99
2019-05-29T02:57:13.982Z,88.52
2019-05-29T02:58:14.304Z,88.38
2019-05-29T02:59:14.810Z,87.83
2019-05-29T03:00:15.225Z,88.03
2019-05-29T03:01:15.795Z,87.59
2019-05-29T03:02:16.621Z,88.32
2019-05-29T03:03:17.353Z,88.55
2019-05-29T03:04:17.738Z,88.87
2019-05-29T03:05:18.149Z,89.36
2019-05-29T03:06:18.926Z,89.07
2019-05-29T03:07:19.688Z,89.03
2019-05-29T03:08:20.043Z,89.15
2019-05-29T03:09:22.563Z,89.12
2019-05-29T03:10:20.066Z,89.25
2019-05-29T03:11:23.063Z,89.09
2019-05-29T03:12:20.843Z,88.53
2019-05-29T03:13:23.119Z,88.97
2019-05-29T03:14:22.919Z,89.12
2019-05-29T03:15:23.559Z,89.08
2019-05-29T03:16:23.912Z,89.11
2019-05-29T03:17:23.678Z,88.84
2019-05-29T03:18:24.025Z,89.12
2019-05-29T03:19:24.028Z,88.46
2019-05-29T03:20:25.959Z,88.39
2019-05-29T03:21:26.060Z,88.38
2019-05-29T03:22:26.248Z,88.45
2019-05-29T03:23:28.935Z,88.52
2019-05-29T03:24:27.084Z,88.56
2019-05-29T03:25:28.289Z,88.83
2019-05-29T03:26:30.313Z,88.15
2019-05-29T03:27:27.920Z,87.86
2019-05-29T03:28:32.156Z,87.67
2019-05-29T03:29:29.989Z,88.39
2019-05-29T03:30:31.651Z,88.31
2019-05-29T03:31:36.862Z,88.30
2019-05-29T03:32:32.475Z,88.32
2019-05-29T03:33:39.256Z,88.22
2019-05-29T03:34:37.309Z,88.35
2019-05-29T03:35:39.858Z,87.96
2019-05-29T03:36:41.557Z,87.78
2019-05-29T03:37:32.550Z,88.04
2019-05-29T03:38:34.621Z,88.18
2019-05-29T03:39:34.592Z,88.01
2019-05-29T03:40:35.113Z,88.55
2019-05-29T03:41:34.898Z,87.76
2019-05-29T03:42:34.539Z,87.96
2019-05-29T03:43:35.963Z,88.02
2019-05-29T03:44:35.618Z,88.25
2019-05-29T03:45:37.861Z,88.53
2019-05-29T03:46:42.780Z,88.56
2019-05-29T03:47:37.206Z,88.67
2019-05-29T03:48:38.555Z,89.02
2019-05-29T03:49:37.625Z,89.17
2019-05-29T03:50:38.973Z,88.70
2019-05-29T03:51:39.514Z,88.54
2019-05-29T03:52:40.011Z,88.79
2019-05-29T03:53:40.372Z,88.70
2019-05-29T03:54:40.975Z,88.76
2019-05-29T03:55:41.520Z,88.60
2019-05-29T03:56:42.004Z,88.57
2019-05-29T03:57:42.391Z,89.42
2019-05-29T03:58:42.843Z,89.56
2019-05-29T03:59:43.361Z,89.69
2019-05-29T04:00:46.653Z,89.66
2019-05-29T04:01:43.531Z,89.66
2019-05-29T04:02:45.326Z,88.82
2019-05-29T04:03:45.879Z,89.12
2019-05-29T04:03:55.431Z,89.51
2019-05-29T04:04:57.002Z,89.57
2019-05-29T04:05:57.954Z,89.79
2019-05-29T04:06:58.532Z,89.46
2019-05-29T04:07:59.121Z,89.03
2019-05-29T04:08:59.713Z,88.91
2019-05-29T04:10:00.169Z,89.04
2019-05-29T04:11:00.919Z,88.83
2019-05-29T04:12:01.350Z,88.76
2019-05-29T04:13:01.800Z,88.47
2019-05-29T04:14:01.210Z,88.59
2019-05-29T04:15:02.830Z,88.20
2019-05-29T04:16:03.226Z,88.26
2019-05-29T04:17:03.848Z,88.77
2019-05-29T04:18:04.234Z,88.21
2019-05-29T04:19:04.627Z,87.30
2019-05-29T04:20:05.017Z,87.73
2019-05-29T04:21:05.834Z,87.97
2019-05-29T04:22:06.320Z,88.18
2019-05-29T04:23:06.717Z,88.57
2019-05-29T04:24:07.331Z,89.49
2019-05-29T04:25:07.925Z,88.80
2019-05-29T04:26:08.613Z,88.64
2019-05-29T04:27:08.912Z,87.71
2019-05-29T04:28:09.323Z,87.52
2019-05-29T04:29:09.742Z,86.90
2019-05-29T04:30:10.171Z,86.84
2019-05-29T04:31:10.715Z,86.23
2019-05-29T04:32:11.085Z,86.88
2019-05-29T04:33:11.539Z,87.08
2019-05-29T04:34:11.976Z,86.87
2019-05-29T04:35:12.447Z,86.91
2019-05-29T04:36:13.064Z,86.99
2019-05-29T04:37:13.495Z,86.72
2019-05-29T04:38:13.952Z,86.77
2019-05-29T04:39:14.546Z,86.99
2019-05-29T04:40:14.962Z,85.96
2019-05-29T04:41:15.546Z,86.58
2019-05-29T04:42:15.898Z,86.71
2019-05-29T04:43:16.298Z,86.65
2019-05-29T04:44:16.745Z,87.12
2019-05-29T04:45:17.464Z,87.15
2019-05-29T04:46:17.908Z,87.31
2019-05-29T04:47:18.300Z,86.93
2019-05-29T04:47:31.022Z,86.74
2019-05-29T04:48:31.558Z,86.78
2019-05-29T04:49:31.964Z,86.74
2019-05-29T04:50:33.377Z,87.03
2019-05-29T04:51:33.096Z,86.27
2019-05-29T04:52:33.869Z,86.26
2019-05-29T04:53:33.695Z,86.06
2019-05-29T04:54:35.271Z,85.40
2019-05-29T04:55:34.824Z,86.07
2019-05-29T04:56:34.887Z,86.20
2019-05-29T04:57:35.129Z,85.83
2019-05-29T04:58:37.031Z,85.78
2019-05-29T04:59:37.119Z,84.64
2019-05-29T05:00:37.247Z,84.52
2019-05-29T05:01:37.118Z,84.10
2019-05-29T05:02:37.320Z,84.13
2019-05-29T05:03:37.714Z,84.35
2019-05-29T05:04:39.455Z,84.63
2019-05-29T05:05:39.545Z,83.55
2019-05-29T05:06:39.491Z,81.87
2019-05-29T05:07:39.731Z,80.78
2019-05-29T05:08:40.282Z,79.47
2019-05-29T05:09:40.620Z,78.68
2019-05-29T05:10:42.064Z,77.15
2019-05-29T05:11:42.483Z,76.27
2019-05-29T05:12:43.061Z,76.39
2019-05-29T05:13:42.469Z,72.96
2019-05-29T05:14:43.948Z,71.63
2019-05-29T05:15:44.287Z,69.80
2019-05-29T05:16:44.857Z,68.85
2019-05-29T05:17:44.284Z,67.72
2019-05-29T05:18:45.850Z,66.71
2019-05-29T05:19:46.279Z,65.42
2019-05-29T05:20:46.684Z,65.81
2019-05-29T05:21:47.132Z,65.22
2019-05-29T05:22:48.573Z,64.35
2019-05-29T05:23:48.337Z,63.39
2019-05-29T05:24:48.742Z,62.35
2019-05-29T05:25:49.284Z,61.69
2019-05-29T05:26:49.897Z,60.85
2019-05-29T05:27:49.952Z,60.50
2019-05-29T05:28:50.530Z,59.53
2019-05-29T05:29:49.823Z,58.63
2019-05-29T05:30:51.240Z,59.24
2019-05-29T05:31:51.751Z,57.83
2019-05-29T05:32:52.141Z,57.58
2019-05-29T05:33:52.597Z,56.54
2019-05-29T05:34:53.105Z,56.74
2019-05-29T05:35:53.434Z,55.56
2019-05-29T05:36:54.145Z,55.64
2019-05-29T05:37:54.523Z,55.02
2019-05-29T05:38:55.106Z,55.14
2019-05-29T05:39:55.480Z,54.72
2019-05-29T05:40:55.809Z,53.89
2019-05-29T05:41:56.238Z,54.18
2019-05-29T05:42:56.644Z,52.95
2019-05-29T05:43:57.033Z,52.82
2019-05-29T05:44:57.443Z,53.51
2019-05-29T05:45:58.093Z,53.27
2019-05-29T05:46:59.023Z,53.18
2019-05-29T05:47:59.697Z,53.54
2019-05-29T05:49:00.391Z,53.17
2019-05-29T05:50:00.856Z,54.16
2019-05-29T05:50:09.401Z,54.09
2019-05-29T05:51:10.747Z,53.65
2019-05-29T05:52:11.541Z,54.18
2019-05-29T05:53:12.245Z,52.66
2019-05-29T05:54:12.693Z,53.68
2019-05-29T05:55:13.462Z,52.62
2019-05-29T05:56:13.941Z,52.31
2019-05-29T05:57:14.514Z,52.76
2019-05-29T05:58:14.895Z,52.56
2019-05-29T05:59:15.373Z,51.27
2019-05-29T06:00:15.710Z,50.72
2019-05-29T06:01:16.206Z,50.45
2019-05-29T06:02:16.711Z,49.94
2019-05-29T06:03:17.142Z,49.72
2019-05-29T06:04:17.721Z,50.50
2019-05-29T06:05:18.153Z,48.95
2019-05-29T06:06:18.718Z,49.33
2019-05-29T06:07:19.657Z,48.75
2019-05-29T06:08:20.409Z,47.71
2019-05-29T06:09:20.893Z,47.15
2019-05-29T06:10:20.460Z,46.69
2019-05-29T06:11:21.640Z,46.76
2019-05-29T06:12:22.137Z,46.86
2019-05-29T06:13:22.595Z,47.09
2019-05-29T06:14:23.497Z,45.86
2019-05-29T06:15:24.006Z,45.70
2019-05-29T06:16:24.495Z,46.01
2019-05-29T06:17:23.463Z,46.07
2019-05-29T06:18:25.072Z,45.63
2019-05-29T06:19:25.822Z,44.59
2019-05-29T06:20:25.314Z,44.12
2019-05-29T06:21:27.218Z,44.09
2019-05-29T06:22:27.847Z,44.94
2019-05-29T06:23:28.416Z,44.45
2019-05-29T06:24:28.873Z,44.17
2019-05-29T06:25:29.303Z,44.29
2019-05-29T06:26:29.922Z,45.71
2019-05-29T06:27:30.589Z,45.32
2019-05-29T06:28:31.473Z,44.90
2019-05-29T06:29:33.438Z,45.35
2019-05-29T06:30:31.501Z,44.64
2019-05-29T06:31:33.310Z,45.17
2019-05-29T06:32:33.477Z,44.70
2019-05-29T06:33:33.411Z,43.28
2019-05-29T06:34:33.601Z,44.34
2019-05-29T06:35:35.852Z,43.40
2019-05-29T06:36:35.494Z,44.27
2019-05-29T06:37:35.577Z,43.68
2019-05-29T06:38:35.655Z,43.44
2019-05-29T06:39:35.810Z,43.75
2019-05-29T06:40:38.288Z,43.76
2019-05-29T06:41:37.774Z,43.76
2019-05-29T06:42:37.851Z,42.79
2019-05-29T06:43:37.908Z,43.24
2019-05-29T06:44:39.844Z,42.50
2019-05-29T06:45:39.843Z,42.40
2019-05-29T06:46:40.427Z,42.58
2019-05-29T06:47:40.828Z,42.89
2019-05-29T06:48:52.670Z,43.63
2019-05-29T06:48:59.356Z,42.61
2019-05-29T06:49:49.347Z,42.55
2019-05-29T06:50:51.529Z,43.56
2019-05-29T06:51:50.131Z,43.71
2019-05-29T06:52:51.652Z,43.95
2019-05-29T06:53:52.119Z,43.49
2019-05-29T06:54:52.732Z,43.11
2019-05-29T06:55:55.118Z,42.20
2019-05-29T06:56:52.896Z,42.99
2019-05-29T06:57:54.604Z,42.94
2019-05-29T06:58:54.941Z,42.77
2019-05-29T06:59:55.307Z,42.71
2019-05-29T07:00:55.905Z,41.22
2019-05-29T07:01:56.261Z,41.56
2019-05-29T07:02:56.657Z,40.83
2019-05-29T07:04:11.289Z,41.99
2019-05-29T07:04:56.301Z,41.31
2019-05-29T07:05:57.943Z,41.63
2019-05-29T07:06:58.407Z,41.90
2019-05-29T07:07:58.528Z,42.38
2019-05-29T07:08:57.633Z,42.89
2019-05-29T07:09:59.062Z,42.87
2019-05-29T07:10:59.497Z,42.80
2019-05-29T07:11:59.923Z,43.43
2019-05-29T07:13:00.340Z,43.51
2019-05-29T07:14:00.937Z,43.12
2019-05-29T07:15:01.569Z,43.07
2019-05-29T07:16:01.935Z,44.48
2019-05-29T07:17:02.330Z,43.89
2019-05-29T07:18:03.110Z,43.47
2019-05-29T07:19:26.491Z,44.29
2019-05-29T07:20:04.226Z,44.74
2019-05-29T07:21:03.796Z,45.83
2019-05-29T07:22:05.165Z,45.21
2019-05-29T07:23:05.547Z,46.20
2019-05-29T07:24:05.962Z,45.83
2019-05-29T07:25:06.508Z,48.08
2019-05-29T07:26:07.410Z,47.71
2019-05-29T07:27:12.717Z,47.77
2019-05-29T07:28:07.610Z,46.98
2019-05-29T07:29:09.135Z,47.60
2019-05-29T07:30:09.617Z,47.97
2019-05-29T07:31:10.134Z,49.21
2019-05-29T07:32:10.597Z,49.96
2019-05-29T07:33:11.098Z,50.89
2019-05-29T07:34:10.547Z,51.43
2019-05-29T07:35:12.063Z,50.52
2019-05-29T07:36:12.420Z,50.32
2019-05-29T07:37:13.142Z,49.91
2019-05-29T07:38:12.356Z,50.34
2019-05-29T07:39:12.607Z,50.61
2019-05-29T07:40:13.953Z,50.66
2019-05-29T07:40:23.120Z,50.61
2019-05-29T07:41:24.563Z,50.59
2019-05-29T07:42:25.075Z,51.53
2019-05-29T07:43:24.740Z,51.42
2019-05-29T07:44:26.328Z,51.53
2019-05-29T07:45:26.758Z,51.68
2019-05-29T07:46:27.215Z,52.19
2019-05-29T07:47:27.877Z,51.33
2019-05-29T07:48:28.459Z,52.23
2019-05-29T07:49:38.490Z,53.79
2019-05-29T07:50:28.204Z,54.29
2019-05-29T07:51:29.743Z,57.31
2019-05-29T07:52:30.418Z,57.28
2019-05-29T07:53:29.956Z,57.55
2019-05-29T07:54:31.550Z,57.13
2019-05-29T07:55:31.998Z,58.62
2019-05-29T07:56:32.356Z,58.27
2019-05-29T07:57:32.940Z,58.65
2019-05-29T07:58:33.291Z,58.64
2019-05-29T07:59:34.048Z,57.49
2019-05-29T08:00:36.156Z,57.88
2019-05-29T08:01:33.964Z,56.93
2019-05-29T08:02:35.403Z,56.95
2019-05-29T08:03:35.843Z,57.69
2019-05-29T08:04:36.258Z,57.14
2019-05-29T08:05:36.693Z,57.34
2019-05-29T08:06:37.182Z,57.25
2019-05-29T08:07:39.272Z,55.43
2019-05-29T08:08:37.617Z,54.44
2019-05-29T08:09:39.569Z,55.73
2019-05-29T08:10:41.674Z,55.36
2019-05-29T08:11:39.840Z,55.56
2019-05-29T08:12:46.377Z,56.73
2019-05-29T08:13:41.495Z,57.12
2019-05-29T08:14:41.832Z,57.12
2019-05-29T08:15:55.038Z,57.09
2019-05-29T08:16:42.196Z,56.67
2019-05-29T08:17:44.122Z,52.58
2019-05-29T08:18:46.227Z,52.73
2019-05-29T08:19:59.228Z,54.39
2019-05-29T08:20:44.365Z,52.64
2019-05-29T08:21:46.503Z,53.68
2019-05-29T08:22:46.415Z,53.40
2019-05-29T08:23:46.424Z,53.40
2019-05-29T08:24:47.452Z,53.10
2019-05-29T08:25:47.651Z,53.66
2019-05-29T08:26:47.046Z,54.33
2019-05-29T08:27:48.924Z,55.04
2019-05-29T08:28:48.955Z,54.15
2019-05-29T08:29:48.939Z,54.14
2019-05-29T08:30:55.763Z,54.26
2019-05-29T08:31:51.015Z,53.32
2019-05-29T08:32:51.261Z,52.89
2019-05-29T08:33:51.415Z,54.62
2019-05-29T08:34:51.534Z,52.82
2019-05-29T08:35:59.814Z,52.41
2019-05-29T08:37:05.990Z,54.51
2019-05-29T08:37:53.596Z,54.17
2019-05-29T08:38:54.948Z,53.62
2019-05-29T08:39:55.291Z,52.97
2019-05-29T08:40:55.633Z,53.60
2019-05-29T08:42:21.348Z,53.28
2019-05-29T08:42:55.339Z,53.96
2019-05-29T08:43:56.706Z,53.05
2019-05-29T08:44:57.115Z,54.48
2019-05-29T08:45:05.770Z,54.91
2019-05-29T08:46:07.238Z,54.49
2019-05-29T08:47:10.472Z,54.63
2019-05-29T08:48:06.902Z,54.00
2019-05-29T08:49:08.341Z,53.00
2019-05-29T08:50:18.160Z,53.94
2019-05-29T08:51:08.336Z,53.86
2019-05-29T08:52:12.287Z,53.41
2019-05-29T08:53:09.030Z,52.98
2019-05-29T08:54:23.564Z,53.03
2019-05-29T08:55:09.984Z,53.43
2019-05-29T08:56:11.559Z,52.52
2019-05-29T08:57:11.930Z,51.71
2019-05-29T08:58:12.243Z,52.05
2019-05-29T08:59:12.604Z,51.30
2019-05-29T09:00:13.017Z,51.76
2019-05-29T09:01:12.000Z,53.04
2019-05-29T09:02:13.588Z,52.75
2019-05-29T09:03:14.123Z,53.26
2019-05-29T09:04:14.696Z,53.16
2019-05-29T09:05:15.304Z,52.76
2019-05-29T09:06:15.825Z,51.93
2019-05-29T09:07:16.214Z,50.88
2019-05-29T09:08:16.591Z,51.22
2019-05-29T09:09:17.338Z,52.56
2019-05-29T09:10:16.812Z,52.55
2019-05-29T09:11:18.456Z,53.05
2019-05-29T09:12:19.301Z,53.05
2019-05-29T09:13:18.638Z,51.44
2019-05-29T09:14:20.411Z,53.23
2019-05-29T09:15:21.860Z,51.38
2019-05-29T09:16:20.509Z,52.95
2019-05-29T09:17:22.408Z,52.79
2019-05-29T09:18:25.592Z,51.30
2019-05-29T09:19:22.844Z,50.75
2019-05-29T09:20:43.233Z,51.62
2019-05-29T09:21:26.380Z,51.61
2019-05-29T09:22:23.388Z,52.39
2019-05-29T09:23:24.551Z,51.61
2019-05-29T09:24:25.067Z,52.96
2019-05-29T09:25:24.426Z,53.52
2019-05-29T09:26:26.132Z,53.50
2019-05-29T09:27:28.301Z,52.13
2019-05-29T09:28:26.536Z,52.34
2019-05-29T09:29:27.944Z,52.08
2019-05-29T09:30:27.452Z,53.64
2019-05-29T09:31:29.190Z,52.73
2019-05-29T09:32:48.446Z,52.94
2019-05-29T09:33:29.775Z,52.58
2019-05-29T09:34:31.688Z,50.92
2019-05-29T09:35:32.155Z,51.30
2019-05-29T09:36:32.858Z,52.36
2019-05-29T09:37:33.693Z,52.82
2019-05-29T09:38:33.139Z,51.18
2019-05-29T09:39:34.666Z,53.31
2019-05-29T09:40:35.088Z,52.19
2019-05-29T09:41:35.775Z,52.48
2019-05-29T09:42:36.318Z,51.28
2019-05-29T09:42:44.892Z,52.16
2019-05-29T09:43:58.258Z,52.13
2019-05-29T09:44:45.712Z,52.62
2019-05-29T09:45:47.233Z,51.00
2019-05-29T09:46:47.767Z,50.17
2019-05-29T09:47:48.292Z,51.31
2019-05-29T09:48:50.237Z,51.27
2019-05-29T09:49:48.279Z,50.80
2019-05-29T09:50:50.831Z,51.45
2019-05-29T09:51:49.336Z,51.17
2019-05-29T09:52:50.818Z,51.22
2019-05-29T09:53:52.472Z,51.19
2019-05-29T09:54:52.975Z,50.98
2019-05-29T09:55:52.276Z,49.97
2019-05-29T09:56:52.247Z,49.55
2019-05-29T09:57:54.155Z,48.27
2019-05-29T09:58:55.289Z,48.20
2019-05-29T09:59:54.451Z,50.29
2019-05-29T10:01:15.923Z,49.59
2019-05-29T10:01:56.207Z,48.30
2019-05-29T10:02:55.626Z,47.50
2019-05-29T10:03:57.166Z,46.78
2019-05-29T10:04:56.494Z,47.71
2019-05-29T10:05:55.957Z,48.04
2019-05-29T10:06:57.496Z,49.63
2019-05-29T10:07:58.066Z,51.55
2019-05-29T10:08:58.047Z,53.10
2019-05-29T10:09:59.288Z,52.80
2019-05-29T10:11:05.902Z,52.21
2019-05-29T10:12:03.454Z,52.09
2019-05-29T10:13:00.028Z,52.37
2019-05-29T10:14:00.607Z,51.63
2019-05-29T10:15:02.246Z,52.44
2019-05-29T10:16:02.902Z,53.08
2019-05-29T10:17:08.168Z,53.51
2019-05-29T10:18:07.407Z,52.72
2019-05-29T10:19:04.979Z,52.21
2019-05-29T10:20:05.093Z,51.15
2019-05-29T10:21:05.212Z,51.82
2019-05-29T10:22:06.759Z,50.01
2019-05-29T10:23:07.429Z,50.53
2019-05-29T10:24:07.887Z,49.69
2019-05-29T10:25:08.349Z,51.52
2019-05-29T10:26:09.237Z,50.94
2019-05-29T10:27:12.931Z,52.04
2019-05-29T10:29:38.677Z,51.56
2019-05-29T10:30:42.065Z,51.58
2019-05-29T10:31:02.109Z,51.36
2019-05-29T10:31:39.473Z,52.69
2019-05-29T10:32:42.553Z,51.04
2019-05-29T10:33:40.245Z,51.63
2019-05-29T10:34:42.231Z,51.34
2019-05-29T10:35:42.466Z,50.77
2019-05-29T10:36:42.303Z,50.23
2019-05-29T10:37:42.753Z,50.09
2019-05-29T10:39:13.500Z,48.89
2019-05-29T10:40:15.039Z,48.75
2019-05-29T10:41:15.634Z,49.95
2019-05-29T10:43:33.838Z,47.42
2019-05-29T10:44:23.823Z,47.65
2019-05-29T10:45:25.206Z,46.46
2019-05-29T10:46:25.415Z,46.80
2019-05-29T10:47:25.935Z,48.86
2019-05-29T10:48:26.367Z,47.60
2019-05-29T10:49:26.849Z,47.79
2019-05-29T10:50:26.256Z,48.38
2019-05-29T10:51:27.763Z,46.93
2019-05-29T10:52:28.210Z,46.07
2019-05-29T10:53:27.941Z,47.04
2019-05-29T10:54:29.502Z,46.91
2019-05-29T10:55:29.953Z,46.71
2019-05-29T10:56:30.684Z,46.41
2019-05-29T10:57:31.365Z,47.99
2019-05-29T10:58:48.075Z,47.56
2019-05-29T10:59:31.956Z,47.36
2019-05-29T11:00:33.365Z,47.46
2019-05-29T11:01:33.886Z,49.98
2019-05-29T11:02:34.328Z,49.91
2019-05-29T11:03:34.795Z,48.86
2019-05-29T11:04:35.249Z,46.90
2019-05-29T11:05:35.889Z,47.14
2019-05-29T11:06:40.258Z,48.73
2019-05-29T11:07:35.752Z,48.50
2019-05-29T11:08:37.191Z,47.53
2019-05-29T11:09:44.475Z,46.46
2019-05-29T11:10:37.036Z,45.78
2019-05-29T11:11:38.504Z,45.64
2019-05-29T11:12:39.879Z,46.34
2019-05-29T11:13:38.561Z,45.28
2019-05-29T11:14:39.984Z,45.46
2019-05-29T11:15:40.720Z,46.51
2019-05-29T11:16:41.412Z,46.61
2019-05-29T11:17:41.985Z,48.75
2019-05-29T11:18:41.521Z,49.28
2019-05-29T11:19:43.338Z,48.71
2019-05-29T11:20:43.750Z,49.17
2019-05-29T11:21:44.095Z,48.19
2019-05-29T11:22:44.533Z,48.22
2019-05-29T11:23:44.888Z,46.87
2019-05-29T11:24:45.400Z,46.29
2019-05-29T11:25:45.870Z,46.94
2019-05-29T11:26:45.140Z,47.53
2019-05-29T11:27:46.393Z,46.83
2019-05-29T11:28:48.257Z,46.74
2019-05-29T11:29:46.485Z,46.69
2019-05-29T11:30:48.661Z,46.96
2019-05-29T11:31:48.463Z,47.29
2019-05-29T11:32:50.235Z,47.81
2019-05-29T11:33:48.846Z,47.73
2019-05-29T11:34:49.052Z,47.58
2019-05-29T11:36:00.830Z,44.93
2019-05-29T11:36:49.989Z,46.77
2019-05-29T11:37:50.429Z,46.66
2019-05-29T11:38:50.733Z,45.56
2019-05-29T11:39:52.594Z,44.02
2019-05-29T11:41:03.718Z,44.47
2019-05-29T11:41:52.677Z,44.73
2019-05-29T11:42:52.928Z,44.92
2019-05-29T11:43:54.624Z,44.67
2019-05-29T11:44:55.145Z,45.24
2019-05-29T11:45:03.778Z,46.63
2019-05-29T11:46:02.698Z,46.63
2019-05-29T11:47:04.205Z,45.75
2019-05-29T11:48:05.393Z,44.43
2019-05-29T11:49:04.110Z,44.72
2019-05-29T11:50:18.830Z,45.29
2019-05-29T11:51:04.651Z,45.03
2019-05-29T11:52:23.316Z,45.51
2019-05-29T11:53:05.516Z,47.61
2019-05-29T11:54:06.851Z,46.70
2019-05-29T11:55:08.254Z,44.76
2019-05-29T11:56:07.154Z,44.95
2019-05-29T11:57:08.666Z,45.51
2019-05-29T11:58:09.319Z,45.25
2019-05-29T11:59:08.660Z,46.31
2019-05-29T12:00:19.864Z,46.10
2019-05-29T12:01:10.074Z,45.19
2019-05-29T12:02:12.000Z,45.11
2019-05-29T12:03:12.478Z,44.72
2019-05-29T12:04:25.776Z,45.89
2019-05-29T12:05:12.345Z,45.69
2019-05-29T12:06:14.263Z,44.44
2019-05-29T12:07:13.489Z,45.10
2019-05-29T12:08:15.045Z,44.00
2019-05-29T12:09:31.486Z,43.94
2019-05-29T12:10:15.357Z,45.77
2019-05-29T12:11:15.790Z,45.57
2019-05-29T12:12:17.512Z,46.15
2019-05-29T12:13:17.201Z,45.41
2019-05-29T12:14:17.517Z,45.30
2019-05-29T12:15:18.790Z,44.46
2019-05-29T12:16:18.040Z,44.86
2019-05-29T12:17:18.661Z,44.69
2019-05-29T12:18:23.997Z,45.07
2019-05-29T12:19:19.698Z,43.42
2019-05-29T12:20:28.720Z,42.87
2019-05-29T12:21:19.711Z,43.30
2019-05-29T12:22:19.921Z,44.01
2019-05-29T12:23:26.284Z,43.25
2019-05-29T12:24:21.469Z,42.54
2019-05-29T12:25:21.579Z,43.10
2019-05-29T12:26:23.169Z,44.89
2019-05-29T12:27:22.715Z,42.92
2019-05-29T12:28:23.003Z,42.90
2019-05-29T12:29:23.240Z,42.74
2019-05-29T12:30:23.246Z,43.50
2019-05-29T12:31:23.663Z,42.91
2019-05-29T12:32:23.770Z,42.44
2019-05-29T12:33:24.334Z,42.71
2019-05-29T12:34:24.603Z,41.15
2019-05-29T12:35:24.713Z,40.95
2019-05-29T12:36:24.780Z,41.00
2019-05-29T12:37:26.266Z,41.45
2019-05-29T12:38:25.858Z,43.41
2019-05-29T12:39:26.271Z,43.71
2019-05-29T12:40:26.585Z,41.46
2019-05-29T12:41:27.105Z,41.26
2019-05-29T12:42:27.787Z,41.19
2019-05-29T12:43:29.269Z,41.44
2019-05-29T12:44:28.352Z,41.51
2019-05-29T12:45:28.461Z,43.09
2019-05-29T12:46:28.856Z,42.32
2019-05-29T12:47:29.909Z,43.29
2019-05-29T12:48:30.738Z,44.54
2019-05-29T12:49:31.455Z,40.12
2019-05-29T12:50:34.531Z,39.48
2019-05-29T12:51:33.456Z,40.73